sensor_id;sensor_type;location;lat;lon;timestamp;P1;durP1;ratioP1;P2;durP2;ratioP2
45208;SDS011;30951;43.994;26.260;2023-12-29T00:00:17;47.60;;;25.67;;
45208;SDS011;30951;43.994;26.260;2023-12-29T00:02:43;50.85;;;26.80;;
45208;SDS011;30951;43.994;26.260;2023-12-29T00:05:08;50.08;;;26.30;;
45208;SDS011;30951;43.994;26.260;2023-12-29T00:07:33;54.33;;;26.17;;
45208;SDS011;30951;43.994;26.260;2023-12-29T00:09:59;49.60;;;24.58;;
45208;SDS011;30951;43.994;26.260;2023-12-29T00:12:25;48.38;;;24.52;;
45208;SDS011;30951;43.994;26.260;2023-12-29T00:14:50;52.25;;;25.52;;
45208;SDS011;30951;43.994;26.260;2023-12-29T00:17:16;43.20;;;23.48;;
45208;SDS011;30951;43.994;26.260;2023-12-29T00:19:41;52.90;;;25.77;;
45208;SDS011;30951;43.994;26.260;2023-12-29T00:22:06;51.30;;;25.90;;
45208;SDS011;30951;43.994;26.260;2023-12-29T00:24:32;55.15;;;25.08;;
45208;SDS011;30951;43.994;26.260;2023-12-29T00:26:58;49.88;;;26.35;;
45208;SDS011;30951;43.994;26.260;2023-12-29T00:29:24;47.67;;;26.48;;
45208;SDS011;30951;43.994;26.260;2023-12-29T00:31:50;50.08;;;26.05;;
45208;SDS011;30951;43.994;26.260;2023-12-29T00:34:16;50.78;;;25.85;;
45208;SDS011;30951;43.994;26.260;2023-12-29T00:36:41;45.42;;;25.20;;
45208;SDS011;30951;43.994;26.260;2023-12-29T00:39:06;53.10;;;24.35;;
45208;SDS011;30951;43.994;26.260;2023-12-29T00:41:32;47.03;;;23.80;;
45208;SDS011;30951;43.994;26.260;2023-12-29T00:43:57;45.70;;;23.08;;
45208;SDS011;30951;43.994;26.260;2023-12-29T00:46:23;45.05;;;24.35;;
45208;SDS011;30951;43.994;26.260;2023-12-29T00:48:48;43.00;;;22.58;;
45208;SDS011;30951;43.994;26.260;2023-12-29T00:51:14;45.10;;;22.42;;
45208;SDS011;30951;43.994;26.260;2023-12-29T00:53:40;40.88;;;21.85;;
45208;SDS011;30951;43.994;26.260;2023-12-29T00:56:12;41.28;;;21.10;;
45208;SDS011;30951;43.994;26.260;2023-12-29T00:58:37;45.03;;;21.95;;
45208;SDS011;30951;43.994;26.260;2023-12-29T01:01:03;41.47;;;21.27;;
45208;SDS011;30951;43.994;26.260;2023-12-29T01:03:33;53.70;;;23.58;;
45208;SDS011;30951;43.994;26.260;2023-12-29T01:05:59;42.35;;;22.90;;
45208;SDS011;30951;43.994;26.260;2023-12-29T01:08:24;45.47;;;23.70;;
45208;SDS011;30951;43.994;26.260;2023-12-29T01:10:50;52.55;;;24.25;;
45208;SDS011;30951;43.994;26.260;2023-12-29T01:13:15;48.78;;;24.38;;
45208;SDS011;30951;43.994;26.260;2023-12-29T01:15:41;47.88;;;25.70;;
45208;SDS011;30951;43.994;26.260;2023-12-29T01:18:09;51.17;;;25.35;;
45208;SDS011;30951;43.994;26.260;2023-12-29T01:20:35;51.15;;;26.10;;
45208;SDS011;30951;43.994;26.260;2023-12-29T01:23:00;58.95;;;30.48;;
45208;SDS011;30951;43.994;26.260;2023-12-29T01:25:26;59.50;;;31.42;;
45208;SDS011;30951;43.994;26.260;2023-12-29T01:27:51;55.67;;;31.13;;
45208;SDS011;30951;43.994;26.260;2023-12-29T01:30:17;64.63;;;31.38;;
45208;SDS011;30951;43.994;26.260;2023-12-29T01:32:42;67.88;;;34.95;;
45208;SDS011;30951;43.994;26.260;2023-12-29T01:35:08;69.18;;;33.90;;
45208;SDS011;30951;43.994;26.260;2023-12-29T01:37:33;73.80;;;32.65;;
45208;SDS011;30951;43.994;26.260;2023-12-29T01:39:59;63.78;;;31.02;;
45208;SDS011;30951;43.994;26.260;2023-12-29T01:42:24;59.92;;;28.02;;
45208;SDS011;30951;43.994;26.260;2023-12-29T01:44:50;52.20;;;26.42;;
45208;SDS011;30951;43.994;26.260;2023-12-29T01:47:19;61.75;;;29.67;;
45208;SDS011;30951;43.994;26.260;2023-12-29T01:49:46;67.05;;;33.45;;
45208;SDS011;30951;43.994;26.260;2023-12-29T01:52:12;81.03;;;34.13;;
45208;SDS011;30951;43.994;26.260;2023-12-29T01:54:38;67.78;;;31.88;;
45208;SDS011;30951;43.994;26.260;2023-12-29T01:57:05;65.22;;;30.48;;
45208;SDS011;30951;43.994;26.260;2023-12-29T01:59:33;63.03;;;32.03;;
45208;SDS011;30951;43.994;26.260;2023-12-29T02:02:00;66.43;;;32.28;;
45208;SDS011;30951;43.994;26.260;2023-12-29T02:04:27;68.75;;;32.17;;
45208;SDS011;30951;43.994;26.260;2023-12-29T02:06:53;71.05;;;31.40;;
45208;SDS011;30951;43.994;26.260;2023-12-29T02:09:19;67.70;;;31.23;;
45208;SDS011;30951;43.994;26.260;2023-12-29T02:11:45;76.60;;;31.60;;
45208;SDS011;30951;43.994;26.260;2023-12-29T02:14:11;69.82;;;32.72;;
45208;SDS011;30951;43.994;26.260;2023-12-29T02:22:02;78.00;;;33.83;;
45208;SDS011;30951;43.994;26.260;2023-12-29T02:24:28;77.10;;;34.22;;
45208;SDS011;30951;43.994;26.260;2023-12-29T02:26:57;87.00;;;37.22;;
45208;SDS011;30951;43.994;26.260;2023-12-29T02:29:28;81.00;;;36.38;;
45208;SDS011;30951;43.994;26.260;2023-12-29T02:31:55;87.55;;;37.92;;
45208;SDS011;30951;43.994;26.260;2023-12-29T02:34:23;85.38;;;38.20;;
45208;SDS011;30951;43.994;26.260;2023-12-29T02:36:48;86.78;;;38.50;;
45208;SDS011;30951;43.994;26.260;2023-12-29T02:39:16;76.25;;;37.38;;
45208;SDS011;30951;43.994;26.260;2023-12-29T02:41:41;88.95;;;38.53;;
45208;SDS011;30951;43.994;26.260;2023-12-29T02:44:07;82.35;;;38.63;;
45208;SDS011;30951;43.994;26.260;2023-12-29T02:46:32;80.75;;;38.50;;
45208;SDS011;30951;43.994;26.260;2023-12-29T02:48:58;87.80;;;37.80;;
45208;SDS011;30951;43.994;26.260;2023-12-29T02:51:24;84.93;;;37.78;;
45208;SDS011;30951;43.994;26.260;2023-12-29T02:53:50;85.00;;;37.50;;
45208;SDS011;30951;43.994;26.260;2023-12-29T02:56:15;84.82;;;40.17;;
45208;SDS011;30951;43.994;26.260;2023-12-29T02:58:41;88.93;;;40.17;;
45208;SDS011;30951;43.994;26.260;2023-12-29T03:01:06;90.75;;;40.00;;
45208;SDS011;30951;43.994;26.260;2023-12-29T03:03:32;78.75;;;37.63;;
45208;SDS011;30951;43.994;26.260;2023-12-29T03:05:57;95.50;;;37.67;;
45208;SDS011;30951;43.994;26.260;2023-12-29T03:08:22;83.60;;;38.58;;
45208;SDS011;30951;43.994;26.260;2023-12-29T03:10:48;82.97;;;38.00;;
45208;SDS011;30951;43.994;26.260;2023-12-29T03:13:13;86.15;;;36.28;;
45208;SDS011;30951;43.994;26.260;2023-12-29T03:15:40;85.07;;;34.85;;
45208;SDS011;30951;43.994;26.260;2023-12-29T03:18:05;85.90;;;37.03;;
45208;SDS011;30951;43.994;26.260;2023-12-29T03:20:31;89.82;;;38.95;;
45208;SDS011;30951;43.994;26.260;2023-12-29T03:22:56;95.40;;;39.00;;
45208;SDS011;30951;43.994;26.260;2023-12-29T03:25:22;96.07;;;40.55;;
45208;SDS011;30951;43.994;26.260;2023-12-29T03:27:47;92.65;;;39.67;;
45208;SDS011;30951;43.994;26.260;2023-12-29T03:30:13;93.95;;;38.35;;
45208;SDS011;30951;43.994;26.260;2023-12-29T03:32:39;84.82;;;37.47;;
45208;SDS011;30951;43.994;26.260;2023-12-29T03:35:04;85.28;;;36.75;;
45208;SDS011;30951;43.994;26.260;2023-12-29T03:37:30;80.85;;;35.13;;
45208;SDS011;30951;43.994;26.260;2023-12-29T03:39:55;73.00;;;35.30;;
45208;SDS011;30951;43.994;26.260;2023-12-29T03:42:21;78.88;;;33.17;;
45208;SDS011;30951;43.994;26.260;2023-12-29T03:44:46;85.47;;;35.20;;
45208;SDS011;30951;43.994;26.260;2023-12-29T03:47:12;77.90;;;33.50;;
45208;SDS011;30951;43.994;26.260;2023-12-29T03:49:37;78.47;;;35.22;;
45208;SDS011;30951;43.994;26.260;2023-12-29T03:52:03;76.82;;;34.78;;
45208;SDS011;30951;43.994;26.260;2023-12-29T03:54:28;76.15;;;37.28;;
45208;SDS011;30951;43.994;26.260;2023-12-29T03:56:54;81.18;;;36.85;;
45208;SDS011;30951;43.994;26.260;2023-12-29T03:59:19;78.78;;;36.22;;
45208;SDS011;30951;43.994;26.260;2023-12-29T04:01:45;80.70;;;35.58;;
45208;SDS011;30951;43.994;26.260;2023-12-29T04:04:10;75.72;;;35.53;;
45208;SDS011;30951;43.994;26.260;2023-12-29T04:06:35;82.32;;;34.70;;
45208;SDS011;30951;43.994;26.260;2023-12-29T04:09:01;80.78;;;34.00;;
45208;SDS011;30951;43.994;26.260;2023-12-29T04:11:27;79.55;;;35.63;;
45208;SDS011;30951;43.994;26.260;2023-12-29T04:13:52;89.20;;;36.65;;
45208;SDS011;30951;43.994;26.260;2023-12-29T04:16:18;77.15;;;34.33;;
45208;SDS011;30951;43.994;26.260;2023-12-29T04:18:43;81.45;;;38.17;;
45208;SDS011;30951;43.994;26.260;2023-12-29T04:21:13;81.75;;;37.95;;
45208;SDS011;30951;43.994;26.260;2023-12-29T04:23:39;80.10;;;39.57;;
45208;SDS011;30951;43.994;26.260;2023-12-29T04:26:06;92.28;;;42.72;;
45208;SDS011;30951;43.994;26.260;2023-12-29T04:28:32;91.80;;;41.17;;
45208;SDS011;30951;43.994;26.260;2023-12-29T04:30:58;97.43;;;44.10;;
45208;SDS011;30951;43.994;26.260;2023-12-29T04:33:23;84.20;;;40.65;;
45208;SDS011;30951;43.994;26.260;2023-12-29T04:35:49;98.85;;;44.45;;
45208;SDS011;30951;43.994;26.260;2023-12-29T04:38:14;95.65;;;43.00;;
45208;SDS011;30951;43.994;26.260;2023-12-29T04:40:43;85.75;;;43.00;;
45208;SDS011;30951;43.994;26.260;2023-12-29T04:43:08;98.30;;;43.90;;
45208;SDS011;30951;43.994;26.260;2023-12-29T04:45:34;91.10;;;44.65;;
45208;SDS011;30951;43.994;26.260;2023-12-29T04:47:59;102.47;;;45.30;;
45208;SDS011;30951;43.994;26.260;2023-12-29T04:50:25;83.43;;;39.30;;
45208;SDS011;30951;43.994;26.260;2023-12-29T04:52:50;87.25;;;39.17;;
45208;SDS011;30951;43.994;26.260;2023-12-29T04:55:15;97.13;;;41.85;;
45208;SDS011;30951;43.994;26.260;2023-12-29T04:57:41;86.60;;;40.38;;
45208;SDS011;30951;43.994;26.260;2023-12-29T05:00:07;92.90;;;38.92;;
45208;SDS011;30951;43.994;26.260;2023-12-29T05:02:32;86.82;;;38.90;;
45208;SDS011;30951;43.994;26.260;2023-12-29T05:04:58;78.57;;;37.80;;
45208;SDS011;30951;43.994;26.260;2023-12-29T05:07:23;81.10;;;37.50;;
45208;SDS011;30951;43.994;26.260;2023-12-29T05:09:49;81.72;;;38.70;;
45208;SDS011;30951;43.994;26.260;2023-12-29T05:12:15;90.13;;;38.03;;
45208;SDS011;30951;43.994;26.260;2023-12-29T05:14:40;88.30;;;38.47;;
45208;SDS011;30951;43.994;26.260;2023-12-29T05:17:06;89.40;;;37.50;;
45208;SDS011;30951;43.994;26.260;2023-12-29T05:19:33;81.97;;;39.65;;
45208;SDS011;30951;43.994;26.260;2023-12-29T05:21:59;96.65;;;44.13;;
45208;SDS011;30951;43.994;26.260;2023-12-29T05:24:24;88.57;;;40.50;;
45208;SDS011;30951;43.994;26.260;2023-12-29T05:26:49;93.60;;;44.08;;
45208;SDS011;30951;43.994;26.260;2023-12-29T05:29:15;89.57;;;40.33;;
45208;SDS011;30951;43.994;26.260;2023-12-29T05:31:41;101.80;;;45.42;;
45208;SDS011;30951;43.994;26.260;2023-12-29T05:34:06;99.53;;;42.97;;
45208;SDS011;30951;43.994;26.260;2023-12-29T05:36:34;94.30;;;42.60;;
45208;SDS011;30951;43.994;26.260;2023-12-29T05:39:00;98.38;;;42.72;;
45208;SDS011;30951;43.994;26.260;2023-12-29T05:41:26;98.25;;;45.08;;
45208;SDS011;30951;43.994;26.260;2023-12-29T05:43:51;99.28;;;42.75;;
45208;SDS011;30951;43.994;26.260;2023-12-29T05:46:17;88.95;;;39.28;;
45208;SDS011;30951;43.994;26.260;2023-12-29T05:48:42;93.43;;;40.97;;
45208;SDS011;30951;43.994;26.260;2023-12-29T05:51:08;90.40;;;38.60;;
45208;SDS011;30951;43.994;26.260;2023-12-29T05:53:35;94.60;;;39.88;;
45208;SDS011;30951;43.994;26.260;2023-12-29T05:56:00;93.80;;;41.08;;
45208;SDS011;30951;43.994;26.260;2023-12-29T05:58:26;95.07;;;42.78;;
45208;SDS011;30951;43.994;26.260;2023-12-29T06:00:51;85.68;;;39.05;;
45208;SDS011;30951;43.994;26.260;2023-12-29T06:03:17;95.57;;;40.13;;
45208;SDS011;30951;43.994;26.260;2023-12-29T06:05:42;86.68;;;37.28;;
45208;SDS011;30951;43.994;26.260;2023-12-29T06:08:08;81.75;;;36.20;;
45208;SDS011;30951;43.994;26.260;2023-12-29T06:10:33;82.63;;;37.45;;
45208;SDS011;30951;43.994;26.260;2023-12-29T06:13:01;89.35;;;39.50;;
45208;SDS011;30951;43.994;26.260;2023-12-29T06:15:28;91.10;;;34.65;;
45208;SDS011;30951;43.994;26.260;2023-12-29T06:17:53;73.32;;;31.42;;
45208;SDS011;30951;43.994;26.260;2023-12-29T06:20:19;73.03;;;33.10;;
45208;SDS011;30951;43.994;26.260;2023-12-29T06:22:45;85.13;;;35.42;;
45208;SDS011;30951;43.994;26.260;2023-12-29T06:25:11;95.97;;;40.30;;
45208;SDS011;30951;43.994;26.260;2023-12-29T06:27:37;88.95;;;38.20;;
45208;SDS011;30951;43.994;26.260;2023-12-29T06:30:06;91.82;;;42.00;;
45208;SDS011;30951;43.994;26.260;2023-12-29T06:32:33;89.82;;;40.30;;
45208;SDS011;30951;43.994;26.260;2023-12-29T06:34:59;99.53;;;42.10;;
45208;SDS011;30951;43.994;26.260;2023-12-29T06:37:24;85.82;;;38.97;;
45208;SDS011;30951;43.994;26.260;2023-12-29T06:39:50;97.13;;;42.75;;
45208;SDS011;30951;43.994;26.260;2023-12-29T06:42:15;98.40;;;41.80;;
45208;SDS011;30951;43.994;26.260;2023-12-29T06:44:41;97.28;;;40.88;;
45208;SDS011;30951;43.994;26.260;2023-12-29T06:47:09;101.63;;;43.17;;
45208;SDS011;30951;43.994;26.260;2023-12-29T06:49:36;97.80;;;43.78;;
45208;SDS011;30951;43.994;26.260;2023-12-29T06:52:02;96.63;;;45.50;;
45208;SDS011;30951;43.994;26.260;2023-12-29T06:54:27;94.40;;;41.85;;
45208;SDS011;30951;43.994;26.260;2023-12-29T06:56:53;78.35;;;40.03;;
45208;SDS011;30951;43.994;26.260;2023-12-29T06:59:18;89.20;;;41.05;;
45208;SDS011;30951;43.994;26.260;2023-12-29T07:01:45;88.00;;;41.10;;
45208;SDS011;30951;43.994;26.260;2023-12-29T07:04:11;92.55;;;40.38;;
45208;SDS011;30951;43.994;26.260;2023-12-29T07:06:37;85.78;;;37.47;;
45208;SDS011;30951;43.994;26.260;2023-12-29T07:09:03;80.78;;;38.45;;
45208;SDS011;30951;43.994;26.260;2023-12-29T07:11:28;78.88;;;37.10;;
45208;SDS011;30951;43.994;26.260;2023-12-29T07:13:54;68.40;;;35.45;;
45208;SDS011;30951;43.994;26.260;2023-12-29T07:16:19;59.22;;;28.90;;
45208;SDS011;30951;43.994;26.260;2023-12-29T07:18:45;69.13;;;33.28;;
45208;SDS011;30951;43.994;26.260;2023-12-29T07:21:12;63.28;;;33.22;;
45208;SDS011;30951;43.994;26.260;2023-12-29T07:23:38;71.38;;;34.28;;
45208;SDS011;30951;43.994;26.260;2023-12-29T07:26:04;61.03;;;31.90;;
45208;SDS011;30951;43.994;26.260;2023-12-29T07:28:34;52.58;;;24.98;;
45208;SDS011;30951;43.994;26.260;2023-12-29T07:31:00;42.58;;;23.88;;
45208;SDS011;30951;43.994;26.260;2023-12-29T07:33:27;40.75;;;22.23;;
45208;SDS011;30951;43.994;26.260;2023-12-29T07:35:52;36.30;;;20.00;;
45208;SDS011;30951;43.994;26.260;2023-12-29T07:38:19;39.60;;;20.95;;
45208;SDS011;30951;43.994;26.260;2023-12-29T07:40:45;25.30;;;14.73;;
45208;SDS011;30951;43.994;26.260;2023-12-29T07:43:12;28.35;;;16.25;;
45208;SDS011;30951;43.994;26.260;2023-12-29T07:45:39;36.65;;;19.85;;
45208;SDS011;30951;43.994;26.260;2023-12-29T07:48:05;31.23;;;17.40;;
45208;SDS011;30951;43.994;26.260;2023-12-29T07:50:31;32.63;;;17.20;;
45208;SDS011;30951;43.994;26.260;2023-12-29T07:52:57;34.55;;;16.50;;
45208;SDS011;30951;43.994;26.260;2023-12-29T07:55:27;38.58;;;18.10;;
45208;SDS011;30951;43.994;26.260;2023-12-29T07:57:54;30.83;;;15.85;;
45208;SDS011;30951;43.994;26.260;2023-12-29T08:00:19;37.00;;;16.40;;
45208;SDS011;30951;43.994;26.260;2023-12-29T08:02:45;36.17;;;16.92;;
45208;SDS011;30951;43.994;26.260;2023-12-29T08:05:10;32.05;;;16.35;;
45208;SDS011;30951;43.994;26.260;2023-12-29T08:07:36;29.17;;;15.73;;
45208;SDS011;30951;43.994;26.260;2023-12-29T08:10:05;27.65;;;14.85;;
45208;SDS011;30951;43.994;26.260;2023-12-29T08:12:32;24.33;;;13.68;;
45208;SDS011;30951;43.994;26.260;2023-12-29T08:14:59;30.27;;;15.18;;
45208;SDS011;30951;43.994;26.260;2023-12-29T08:17:25;27.77;;;14.32;;
45208;SDS011;30951;43.994;26.260;2023-12-29T08:19:51;31.40;;;16.48;;
45208;SDS011;30951;43.994;26.260;2023-12-29T08:22:16;30.65;;;15.07;;
45208;SDS011;30951;43.994;26.260;2023-12-29T08:24:42;29.13;;;16.67;;
45208;SDS011;30951;43.994;26.260;2023-12-29T08:27:08;26.85;;;14.82;;
45208;SDS011;30951;43.994;26.260;2023-12-29T08:29:35;33.63;;;16.60;;
45208;SDS011;30951;43.994;26.260;2023-12-29T08:32:02;28.65;;;15.30;;
45208;SDS011;30951;43.994;26.260;2023-12-29T08:34:27;26.20;;;14.50;;
45208;SDS011;30951;43.994;26.260;2023-12-29T08:36:53;26.02;;;14.20;;
45208;SDS011;30951;43.994;26.260;2023-12-29T08:39:19;36.85;;;15.65;;
45208;SDS011;30951;43.994;26.260;2023-12-29T08:41:44;23.15;;;13.10;;
45208;SDS011;30951;43.994;26.260;2023-12-29T08:44:10;26.35;;;14.05;;
45208;SDS011;30951;43.994;26.260;2023-12-29T08:46:35;25.17;;;13.15;;
45208;SDS011;30951;43.994;26.260;2023-12-29T08:49:01;22.73;;;12.15;;
45208;SDS011;30951;43.994;26.260;2023-12-29T08:51:26;20.08;;;10.23;;
45208;SDS011;30951;43.994;26.260;2023-12-29T08:53:52;25.17;;;12.15;;
45208;SDS011;30951;43.994;26.260;2023-12-29T08:56:17;20.85;;;11.90;;
45208;SDS011;30951;43.994;26.260;2023-12-29T08:58:43;22.08;;;11.63;;
45208;SDS011;30951;43.994;26.260;2023-12-29T09:01:08;18.13;;;9.50;;
45208;SDS011;30951;43.994;26.260;2023-12-29T09:03:34;17.42;;;9.70;;
45208;SDS011;30951;43.994;26.260;2023-12-29T09:05:59;18.63;;;10.82;;
45208;SDS011;30951;43.994;26.260;2023-12-29T09:08:26;15.77;;;9.88;;
45208;SDS011;30951;43.994;26.260;2023-12-29T09:10:52;28.75;;;10.25;;
45208;SDS011;30951;43.994;26.260;2023-12-29T09:13:17;16.70;;;9.13;;
45208;SDS011;30951;43.994;26.260;2023-12-29T09:15:47;19.73;;;9.95;;
45208;SDS011;30951;43.994;26.260;2023-12-29T09:18:13;18.67;;;10.95;;
45208;SDS011;30951;43.994;26.260;2023-12-29T09:20:38;14.70;;;8.48;;
45208;SDS011;30951;43.994;26.260;2023-12-29T09:23:04;18.08;;;9.38;;
45208;SDS011;30951;43.994;26.260;2023-12-29T09:25:30;19.90;;;9.63;;
45208;SDS011;30951;43.994;26.260;2023-12-29T09:27:56;22.05;;;12.27;;
45208;SDS011;30951;43.994;26.260;2023-12-29T09:30:21;29.65;;;13.15;;
45208;SDS011;30951;43.994;26.260;2023-12-29T09:32:47;21.02;;;9.75;;
45208;SDS011;30951;43.994;26.260;2023-12-29T09:35:12;21.90;;;11.80;;
45208;SDS011;30951;43.994;26.260;2023-12-29T09:37:38;16.92;;;10.38;;
45208;SDS011;30951;43.994;26.260;2023-12-29T09:40:03;20.00;;;10.90;;
45208;SDS011;30951;43.994;26.260;2023-12-29T09:42:30;18.20;;;9.68;;
45208;SDS011;30951;43.994;26.260;2023-12-29T09:44:56;16.65;;;10.13;;
45208;SDS011;30951;43.994;26.260;2023-12-29T09:47:22;20.73;;;11.20;;
45208;SDS011;30951;43.994;26.260;2023-12-29T09:49:49;17.90;;;10.10;;
45208;SDS011;30951;43.994;26.260;2023-12-29T09:52:15;19.23;;;10.30;;
45208;SDS011;30951;43.994;26.260;2023-12-29T09:54:42;15.55;;;8.48;;
45208;SDS011;30951;43.994;26.260;2023-12-29T09:57:08;18.92;;;10.57;;
45208;SDS011;30951;43.994;26.260;2023-12-29T09:59:34;25.05;;;13.27;;
45208;SDS011;30951;43.994;26.260;2023-12-29T10:02:04;18.15;;;9.48;;
45208;SDS011;30951;43.994;26.260;2023-12-29T10:04:30;23.20;;;11.27;;
45208;SDS011;30951;43.994;26.260;2023-12-29T10:06:55;19.50;;;10.40;;
45208;SDS011;30951;43.994;26.260;2023-12-29T10:09:22;17.55;;;10.05;;
45208;SDS011;30951;43.994;26.260;2023-12-29T10:11:49;20.80;;;10.40;;
45208;SDS011;30951;43.994;26.260;2023-12-29T10:14:23;26.00;;;9.52;;
45208;SDS011;30951;43.994;26.260;2023-12-29T10:16:52;20.38;;;10.60;;
45208;SDS011;30951;43.994;26.260;2023-12-29T10:19:26;19.08;;;7.82;;
45208;SDS011;30951;43.994;26.260;2023-12-29T10:24:35;14.73;;;7.95;;
45208;SDS011;30951;43.994;26.260;2023-12-29T10:27:01;21.25;;;9.95;;
45208;SDS011;30951;43.994;26.260;2023-12-29T10:29:27;17.17;;;8.55;;
45208;SDS011;30951;43.994;26.260;2023-12-29T10:31:52;14.43;;;8.02;;
45208;SDS011;30951;43.994;26.260;2023-12-29T10:36:48;15.38;;;9.40;;
45208;SDS011;30951;43.994;26.260;2023-12-29T10:39:14;16.33;;;9.45;;
45208;SDS011;30951;43.994;26.260;2023-12-29T10:41:41;22.15;;;10.88;;
45208;SDS011;30951;43.994;26.260;2023-12-29T10:44:07;17.45;;;10.25;;
45208;SDS011;30951;43.994;26.260;2023-12-29T10:46:32;22.10;;;10.52;;
45208;SDS011;30951;43.994;26.260;2023-12-29T10:51:37;20.98;;;9.02;;
45208;SDS011;30951;43.994;26.260;2023-12-29T10:54:03;15.00;;;9.13;;
45208;SDS011;30951;43.994;26.260;2023-12-29T10:56:29;14.85;;;8.43;;
45208;SDS011;30951;43.994;26.260;2023-12-29T10:59:05;17.05;;;9.00;;
45208;SDS011;30951;43.994;26.260;2023-12-29T11:01:34;17.45;;;9.77;;
45208;SDS011;30951;43.994;26.260;2023-12-29T11:04:01;18.88;;;8.90;;
45208;SDS011;30951;43.994;26.260;2023-12-29T11:06:39;17.05;;;8.63;;
45208;SDS011;30951;43.994;26.260;2023-12-29T11:09:06;12.95;;;7.82;;
45208;SDS011;30951;43.994;26.260;2023-12-29T11:11:31;13.27;;;7.35;;
45208;SDS011;30951;43.994;26.260;2023-12-29T11:14:01;20.80;;;8.63;;
45208;SDS011;30951;43.994;26.260;2023-12-29T11:16:27;16.50;;;8.82;;
45208;SDS011;30951;43.994;26.260;2023-12-29T11:18:52;17.80;;;8.50;;
45208;SDS011;30951;43.994;26.260;2023-12-29T11:21:21;17.90;;;8.23;;
45208;SDS011;30951;43.994;26.260;2023-12-29T11:23:48;18.65;;;8.95;;
45208;SDS011;30951;43.994;26.260;2023-12-29T11:26:13;17.75;;;8.82;;
45208;SDS011;30951;43.994;26.260;2023-12-29T11:28:39;14.73;;;8.48;;
45208;SDS011;30951;43.994;26.260;2023-12-29T11:31:04;14.07;;;8.63;;
45208;SDS011;30951;43.994;26.260;2023-12-29T11:33:31;14.82;;;8.80;;
45208;SDS011;30951;43.994;26.260;2023-12-29T11:36:04;13.13;;;7.70;;
45208;SDS011;30951;43.994;26.260;2023-12-29T11:38:45;16.95;;;7.97;;
45208;SDS011;30951;43.994;26.260;2023-12-29T11:44:00;20.42;;;10.25;;
45208;SDS011;30951;43.994;26.260;2023-12-29T11:46:32;19.00;;;9.90;;
45208;SDS011;30951;43.994;26.260;2023-12-29T11:48:58;14.93;;;9.27;;
45208;SDS011;30951;43.994;26.260;2023-12-29T11:51:29;19.10;;;10.25;;
45208;SDS011;30951;43.994;26.260;2023-12-29T11:54:08;17.98;;;10.18;;
45208;SDS011;30951;43.994;26.260;2023-12-29T11:56:34;15.68;;;8.50;;
45208;SDS011;30951;43.994;26.260;2023-12-29T12:06:58;14.63;;;9.05;;
45208;SDS011;30951;43.994;26.260;2023-12-29T12:09:24;14.25;;;7.60;;
45208;SDS011;30951;43.994;26.260;2023-12-29T12:11:52;19.00;;;8.63;;
45208;SDS011;30951;43.994;26.260;2023-12-29T12:17:26;13.25;;;7.07;;
45208;SDS011;30951;43.994;26.260;2023-12-29T12:19:58;16.13;;;8.18;;
45208;SDS011;30951;43.994;26.260;2023-12-29T12:22:36;15.52;;;8.23;;
45208;SDS011;30951;43.994;26.260;2023-12-29T12:25:02;14.63;;;8.13;;
45208;SDS011;30951;43.994;26.260;2023-12-29T12:27:28;15.20;;;8.15;;
45208;SDS011;30951;43.994;26.260;2023-12-29T12:29:55;12.75;;;7.80;;
45208;SDS011;30951;43.994;26.260;2023-12-29T12:32:24;13.65;;;7.32;;
45208;SDS011;30951;43.994;26.260;2023-12-29T12:34:50;13.82;;;7.18;;
45208;SDS011;30951;43.994;26.260;2023-12-29T12:37:22;12.10;;;7.30;;
45208;SDS011;30951;43.994;26.260;2023-12-29T12:39:49;15.00;;;7.85;;
45208;SDS011;30951;43.994;26.260;2023-12-29T12:42:18;14.90;;;7.30;;
45208;SDS011;30951;43.994;26.260;2023-12-29T12:44:49;10.38;;;6.50;;
45208;SDS011;30951;43.994;26.260;2023-12-29T12:47:24;11.10;;;6.55;;
45208;SDS011;30951;43.994;26.260;2023-12-29T12:49:51;12.93;;;6.85;;
45208;SDS011;30951;43.994;26.260;2023-12-29T12:52:17;15.30;;;6.50;;
45208;SDS011;30951;43.994;26.260;2023-12-29T12:54:42;11.15;;;6.50;;
45208;SDS011;30951;43.994;26.260;2023-12-29T12:57:08;10.18;;;6.38;;
45208;SDS011;30951;43.994;26.260;2023-12-29T12:59:33;14.88;;;7.78;;
45208;SDS011;30951;43.994;26.260;2023-12-29T13:01:59;12.13;;;6.60;;
45208;SDS011;30951;43.994;26.260;2023-12-29T13:04:24;10.15;;;6.65;;
45208;SDS011;30951;43.994;26.260;2023-12-29T13:06:50;11.75;;;6.75;;
45208;SDS011;30951;43.994;26.260;2023-12-29T13:09:15;14.55;;;8.23;;
45208;SDS011;30951;43.994;26.260;2023-12-29T13:11:44;24.27;;;12.82;;
45208;SDS011;30951;43.994;26.260;2023-12-29T13:14:19;11.77;;;6.45;;
45208;SDS011;30951;43.994;26.260;2023-12-29T13:16:45;19.88;;;10.35;;
45208;SDS011;30951;43.994;26.260;2023-12-29T13:19:23;14.65;;;7.45;;
45208;SDS011;30951;43.994;26.260;2023-12-29T13:21:50;17.95;;;7.65;;
45208;SDS011;30951;43.994;26.260;2023-12-29T13:24:24;12.05;;;6.50;;
45208;SDS011;30951;43.994;26.260;2023-12-29T13:27:06;15.45;;;7.00;;
45208;SDS011;30951;43.994;26.260;2023-12-29T13:29:33;13.63;;;6.90;;
45208;SDS011;30951;43.994;26.260;2023-12-29T13:32:00;12.77;;;6.53;;
45208;SDS011;30951;43.994;26.260;2023-12-29T13:34:39;16.73;;;6.57;;
45208;SDS011;30951;43.994;26.260;2023-12-29T13:43:23;10.68;;;5.72;;
45208;SDS011;30951;43.994;26.260;2023-12-29T13:45:48;10.38;;;6.28;;
45208;SDS011;30951;43.994;26.260;2023-12-29T13:48:14;12.40;;;5.72;;
45208;SDS011;30951;43.994;26.260;2023-12-29T13:50:47;10.63;;;5.97;;
45208;SDS011;30951;43.994;26.260;2023-12-29T13:53:20;12.65;;;6.53;;
45208;SDS011;30951;43.994;26.260;2023-12-29T13:55:46;10.30;;;5.95;;
45208;SDS011;30951;43.994;26.260;2023-12-29T13:58:12;12.27;;;7.07;;
45208;SDS011;30951;43.994;26.260;2023-12-29T14:00:39;13.23;;;7.43;;
45208;SDS011;30951;43.994;26.260;2023-12-29T14:03:06;16.27;;;9.07;;
45208;SDS011;30951;43.994;26.260;2023-12-29T14:05:35;17.95;;;9.95;;
45208;SDS011;30951;43.994;26.260;2023-12-29T14:08:08;17.42;;;9.52;;
45208;SDS011;30951;43.994;26.260;2023-12-29T14:10:35;14.60;;;7.50;;
45208;SDS011;30951;43.994;26.260;2023-12-29T14:13:07;15.32;;;7.38;;
45208;SDS011;30951;43.994;26.260;2023-12-29T14:15:41;10.95;;;7.05;;
45208;SDS011;30951;43.994;26.260;2023-12-29T14:20:54;13.30;;;6.82;;
45208;SDS011;30951;43.994;26.260;2023-12-29T14:23:20;9.48;;;6.10;;
45208;SDS011;30951;43.994;26.260;2023-12-29T14:25:45;22.40;;;8.05;;
45208;SDS011;30951;43.994;26.260;2023-12-29T14:28:16;14.73;;;7.18;;
45208;SDS011;30951;43.994;26.260;2023-12-29T14:30:43;21.27;;;8.55;;
45208;SDS011;30951;43.994;26.260;2023-12-29T14:33:09;16.75;;;8.50;;
45208;SDS011;30951;43.994;26.260;2023-12-29T14:35:34;18.35;;;11.02;;
45208;SDS011;30951;43.994;26.260;2023-12-29T14:38:00;24.67;;;13.00;;
45208;SDS011;30951;43.994;26.260;2023-12-29T14:40:26;22.70;;;11.20;;
45208;SDS011;30951;43.994;26.260;2023-12-29T14:42:51;23.17;;;13.77;;